Terminal Aerodrome Forecast
Issued by NWS

Home | Current Version | Previous Version | Text Only | Print | Product List | Glossary On
Versions: 1 2 3 4 5 6 7 8 9 10 11 12 13 14 15 16 17 18 19 20 21 22
000
FTUS46 KOTX 240526
TAFSFF
TAF
KSFF 240526Z 2406/2506 05003KT P6SM SCT150 BKN200
     FM240900 07002KT P6SM SCT060 BKN080 OVC100
     FM241200 07002KT P6SM -RA OVC050
     FM241600 17005KT 6SM -RA BR BKN030 OVC040
     FM242100 20005KT 5SM -RA BR OVC030
     FM250100 VRB04KT P6SM VCSH SCT025 BKN035=

USA.gov is the U.S. government's official web portal to all federal, state and local government web resources and services.